METAR AND TAF INFORMATION
METAR FOR LSZB
ADDS - METARS form results

(0600 UTC 23 May 2019)
Data provider http://aviationweather.gov/metar/data/
 
METAR text: LSZB 230550Z VRB02KT CAVOK 09/08 Q1019 NOSIG
Conditions at: LSZB (BERN/BELP , CH) observed 0550 UTC 23 May 2019
Temperature: 9.0°C (48°F)
Dewpoint: 8.0°C (46°F) [RH = 93%]
Pressure (altimeter): 30.09 inches Hg (1019.0 mb)
Winds: variable direction winds at 2 MPH (2 knots; 1.0 m/s)
Visibility: 6 or more miles (10+ km)
Ceiling: ceiling and visibility are OK
Clouds: unknown
Weather: no significant weather observed at this time

METAR text: LSZB 230520Z VRB02KT CAVOK 07/07 Q1019 NOSIG
Conditions at: LSZB (BERN/BELP , CH) observed 0520 UTC 23 May 2019
Temperature: 7.0°C (45°F)
Dewpoint: 7.0°C (45°F) [RH = 100%]
Pressure (altimeter): 30.09 inches Hg (1019.0 mb)
Winds: variable direction winds at 2 MPH (2 knots; 1.0 m/s)
Visibility: 6 or more miles (10+ km)
Ceiling: ceiling and visibility are OK
Clouds: unknown
Weather: no significant weather observed at this time

Forecast for: LSZB (BERN/BELP , CH)
Text: TAF LSZB 230525Z 2306/2315 VRB03KT CAVOK
Forecast period: 0600 to 0800 UTC 23 May 2019
Forecast type: FROM: standard forecast or significant change
Winds: variable direction winds at 3 MPH (3 knots; 1.5 m/s)
Visibility: 6 or more miles 10+ km)
Ceiling: unknown
Clouds: missing
Weather: NSW  (no significant weather)
Text: BECMG 2308/2311 9999 FEW050
Forecast period: 0800 to 1500 UTC 23 May 2019
Forecast type: BECOMING: Conditions expected to become as follows by 1100 UTC 23 May 2019
Winds: variable direction winds at 3 MPH (3 knots; 1.5 m/s)
Visibility: 6 or more miles 10+ km)
Ceiling: at least 12,000 feet AGL
Clouds: few clouds at 5000 feet AGL
Weather: NSW  (no significant weather)

 AIRPORT MAP

 RUNWAY INFORMATION
Runway 14 Runway length 4954 ft Runway width 98 ft
Runway elevation 1668 ft Runway displaced threshold 656 ft Runway heading 140
Runway 32 Runway length 4954 ft Runway width 98 ft
Runway elevation 1674 ft Runway displaced threshold 360 ft Runway heading 320
Runway 14L Runway length 2133 ft Runway width 98 ft
Runway elevation 0 ft Runway displaced threshold 0 ft Runway heading 140
Runway 32R Runway length 2133 ft Runway width 98 ft
Runway elevation 0 ft Runway displaced threshold 0 ft Runway heading 320
Runway 14R Runway length 2125 ft Runway width 98 ft
Runway elevation 0 ft Runway displaced threshold 0 ft Runway heading 140
Runway 32L Runway length 2125 ft Runway width 98 ft
Runway elevation 0 ft Runway displaced threshold 0 ft Runway heading 320

 AIRPORT FREQUENCIES
Type A/D Name APP/DEP Frequency 127.325 MHZ
Type ATIS Name ATIS Frequency 125.125 MHZ
Type MISC Name GLIDER Frequency 123.4 MHZ
Type OPS Name ALPAR Frequency 135.75 MHZ
Type TWR Name TWR Frequency 121.025 MHZ

 AIRPORT NEAR NAVIGATION AIDS
Type NDB Name Bern Frequency 335 KHZ
Type NDB Name Muri Frequency 312 KHZ
Type NDB Name Schupberg Frequency 357 KHZ



Powered by Virtual Airlines Manager [v2.6.2]